createdAt,value
2022-10-31T00:00:47.884Z,7.20
2022-10-31T00:03:14.851Z,7.17
2022-10-31T00:05:43.561Z,7.20
2022-10-31T00:08:10.313Z,7.32
2022-10-31T00:10:43.431Z,7.29
2022-10-31T00:13:10.854Z,7.13
2022-10-31T00:15:38.981Z,7.25
2022-10-31T00:18:06.682Z,7.11
2022-10-31T00:20:33.539Z,7.17
2022-10-31T00:23:01.121Z,7.25
2022-10-31T00:25:28.631Z,7.27
2022-10-31T00:27:55.480Z,7.08
2022-10-31T00:30:22.521Z,7.10
2022-10-31T00:32:49.141Z,7.16
2022-10-31T00:35:16.072Z,7.17
2022-10-31T00:37:42.737Z,7.27
2022-10-31T00:40:10.213Z,7.22
2022-10-31T00:42:36.912Z,7.19
2022-10-31T00:45:03.969Z,7.26
2022-10-31T00:47:30.636Z,7.25
2022-10-31T00:49:57.339Z,7.15
2022-10-31T00:52:24.069Z,7.19
2022-10-31T00:54:50.646Z,7.25
2022-10-31T00:57:17.304Z,7.32
2022-10-31T00:59:44.081Z,7.28
2022-10-31T01:02:10.946Z,7.29
2022-10-31T01:04:37.741Z,7.24
2022-10-31T01:07:04.462Z,7.28
2022-10-31T01:09:31.071Z,7.31
2022-10-31T01:11:57.721Z,7.28
2022-10-31T01:14:24.410Z,7.23
2022-10-31T01:16:51.051Z,7.02
2022-10-31T01:19:17.761Z,7.01
2022-10-31T01:21:44.503Z,6.92
2022-10-31T01:24:11.450Z,6.95
2022-10-31T01:26:38.139Z,6.95
2022-10-31T01:29:07.142Z,6.97
2022-10-31T01:31:36.270Z,6.95
2022-10-31T01:34:03.648Z,6.87
2022-10-31T01:36:38.737Z,6.92
2022-10-31T01:39:08.319Z,6.85
2022-10-31T01:41:37.871Z,6.88
2022-10-31T01:44:24.510Z,6.81
2022-10-31T01:47:09.528Z,6.80
2022-10-31T01:49:46.992Z,6.84
2022-10-31T01:52:20.589Z,6.80
2022-10-31T01:54:51.908Z,6.68
2022-10-31T01:57:19.560Z,6.73
2022-10-31T01:59:49.711Z,6.87
2022-10-31T02:02:18.547Z,6.77
2022-10-31T02:04:46.441Z,6.63
2022-10-31T02:07:20.051Z,6.74
2022-10-31T02:09:47.700Z,6.78
2022-10-31T02:12:14.823Z,6.81
2022-10-31T02:14:41.871Z,6.82
2022-10-31T02:17:08.680Z,6.84
2022-10-31T02:20:14.281Z,6.77
2022-10-31T02:23:25.926Z,6.71
2022-10-31T02:26:15.511Z,6.71
2022-10-31T02:29:08.699Z,6.73
2022-10-31T02:32:01.942Z,6.74
2022-10-31T02:34:53.195Z,6.66
2022-10-31T02:37:32.530Z,6.48
2022-10-31T02:40:11.339Z,6.45
2022-10-31T02:43:04.203Z,6.55
2022-10-31T02:45:48.392Z,6.57
2022-10-31T02:48:20.291Z,6.42
2022-10-31T02:50:57.273Z,6.48
2022-10-31T02:53:24.082Z,6.50
2022-10-31T02:56:00.726Z,6.32
2022-10-31T02:58:30.387Z,6.39
2022-10-31T03:01:36.577Z,6.44
2022-10-31T03:04:15.092Z,6.14
2022-10-31T03:06:57.702Z,6.02
2022-10-31T03:09:34.126Z,6.00
2022-10-31T03:12:25.591Z,6.09
2022-10-31T03:15:01.721Z,6.18
2022-10-31T03:17:38.464Z,6.21
2022-10-31T03:20:08.162Z,6.15
2022-10-31T03:22:35.427Z,6.24
2022-10-31T03:25:04.472Z,6.32
2022-10-31T03:27:33.716Z,6.36
2022-10-31T03:30:03.920Z,6.38
2022-10-31T03:32:34.221Z,6.44
2022-10-31T03:35:02.989Z,6.49
2022-10-31T03:37:31.988Z,6.47
2022-10-31T03:40:00.034Z,6.43
2022-10-31T03:42:30.568Z,6.32
2022-10-31T03:45:23.600Z,6.46
2022-10-31T03:47:50.499Z,6.56
2022-10-31T03:50:17.532Z,6.57
2022-10-31T03:52:53.776Z,6.52
2022-10-31T03:55:25.651Z,6.36
2022-10-31T03:58:02.183Z,6.25
2022-10-31T04:00:31.231Z,6.08
2022-10-31T04:03:15.853Z,6.04
2022-10-31T04:05:45.113Z,6.22
2022-10-31T04:08:15.374Z,6.31
2022-10-31T04:10:42.943Z,6.16
2022-10-31T04:13:12.770Z,6.21
2022-10-31T04:15:39.691Z,6.23
2022-10-31T04:18:06.672Z,6.01
2022-10-31T04:20:36.002Z,6.18
2022-10-31T04:23:03.381Z,6.19
2022-10-31T04:25:30.179Z,6.17
2022-10-31T04:27:57.074Z,6.22
2022-10-31T04:30:24.294Z,6.27
2022-10-31T04:32:50.960Z,6.29
2022-10-31T04:35:17.730Z,6.28
2022-10-31T04:37:44.411Z,6.30
2022-10-31T04:40:12.490Z,6.36
2022-10-31T04:42:39.179Z,6.28
2022-10-31T04:45:06.588Z,6.35
2022-10-31T04:47:34.428Z,6.35
2022-10-31T04:50:01.677Z,6.21
2022-10-31T04:52:28.463Z,6.13
2022-10-31T04:54:55.118Z,6.23
2022-10-31T04:57:21.899Z,6.26
2022-10-31T04:59:48.641Z,6.28
2022-10-31T05:02:15.482Z,6.34
2022-10-31T05:04:42.293Z,6.30
2022-10-31T05:07:08.965Z,6.30
2022-10-31T05:09:35.630Z,6.29
2022-10-31T05:12:02.352Z,6.32
2022-10-31T05:14:29.172Z,6.31
2022-10-31T05:16:55.821Z,6.32
2022-10-31T05:19:22.535Z,6.08
2022-10-31T05:21:49.117Z,5.98
2022-10-31T05:24:15.701Z,5.89
2022-10-31T05:26:42.252Z,5.52
2022-10-31T05:29:08.864Z,5.44
2022-10-31T05:31:35.417Z,5.46
2022-10-31T05:34:02.086Z,5.54
2022-10-31T05:36:28.779Z,5.67
2022-10-31T05:38:55.423Z,5.69
2022-10-31T05:41:22.036Z,5.65
2022-10-31T05:43:48.651Z,5.70
2022-10-31T05:46:15.233Z,5.58
2022-10-31T05:48:41.844Z,5.52
2022-10-31T05:51:08.530Z,5.46
2022-10-31T05:53:35.112Z,5.46
2022-10-31T05:56:01.668Z,5.52
2022-10-31T05:58:28.255Z,5.66
2022-10-31T06:00:54.918Z,5.72
2022-10-31T06:03:21.472Z,5.62
2022-10-31T06:05:50.829Z,5.62
2022-10-31T06:08:20.762Z,5.44
2022-10-31T06:10:47.470Z,5.40
2022-10-31T06:13:14.414Z,5.40
2022-10-31T06:15:42.692Z,5.60
2022-10-31T06:18:09.676Z,5.62
2022-10-31T06:20:36.289Z,5.66
2022-10-31T06:23:03.998Z,5.71
2022-10-31T06:25:30.869Z,5.79
2022-10-31T06:27:58.036Z,5.80
2022-10-31T06:30:25.211Z,5.76
2022-10-31T06:32:51.970Z,5.67
2022-10-31T06:35:18.944Z,5.77
2022-10-31T06:37:55.166Z,5.81
2022-10-31T06:40:22.261Z,5.87
2022-10-31T06:42:48.942Z,5.90
2022-10-31T06:45:15.715Z,5.95
2022-10-31T06:48:10.927Z,5.97
2022-10-31T06:50:29.171Z,6.08
2022-10-31T06:52:57.778Z,6.14
2022-10-31T06:55:25.679Z,6.06
2022-10-31T06:58:00.277Z,6.09
2022-10-31T07:00:31.216Z,6.08
2022-10-31T07:02:59.516Z,6.02
2022-10-31T07:05:26.910Z,6.03
2022-10-31T07:08:00.847Z,5.99
2022-10-31T07:10:29.461Z,6.10
2022-10-31T07:12:57.415Z,6.27
2022-10-31T07:15:29.112Z,6.45
2022-10-31T07:18:01.361Z,6.46
2022-10-31T07:20:29.038Z,6.53
2022-10-31T07:22:55.754Z,6.34
2022-10-31T07:25:23.003Z,6.23
2022-10-31T07:27:50.091Z,6.23
2022-10-31T07:30:19.302Z,6.31
2022-10-31T07:32:48.551Z,6.45
2022-10-31T07:35:21.157Z,6.46
2022-10-31T07:37:49.294Z,6.64
2022-10-31T07:40:16.608Z,6.50
2022-10-31T07:42:45.170Z,6.63
2022-10-31T07:45:14.042Z,6.50
2022-10-31T07:47:45.434Z,6.52
2022-10-31T07:50:36.322Z,6.76
2022-10-31T07:53:08.388Z,6.76
2022-10-31T07:55:35.950Z,6.63
2022-10-31T07:58:15.992Z,6.82
2022-10-31T08:00:44.769Z,7.14
2022-10-31T08:03:16.593Z,7.30
2022-10-31T08:05:43.534Z,7.41
2022-10-31T08:08:10.522Z,7.05
2022-10-31T08:10:37.803Z,6.88
2022-10-31T08:13:12.241Z,7.32
2022-10-31T08:15:41.102Z,7.20
2022-10-31T08:18:12.730Z,7.25
2022-10-31T08:20:39.573Z,7.44
2022-10-31T08:23:06.762Z,7.38
2022-10-31T08:25:38.312Z,7.78
2022-10-31T08:28:06.670Z,7.64
2022-10-31T08:30:35.412Z,7.56
2022-10-31T08:33:06.513Z,7.64
2022-10-31T08:35:36.430Z,7.97
2022-10-31T08:38:03.862Z,8.07
2022-10-31T08:40:32.042Z,8.34
2022-10-31T08:42:59.510Z,8.38
2022-10-31T08:45:26.304Z,8.14
2022-10-31T08:47:53.442Z,7.82
2022-10-31T08:50:20.332Z,7.84
2022-10-31T08:53:04.032Z,7.78
2022-10-31T08:55:34.428Z,8.35
2022-10-31T08:58:01.433Z,8.40
2022-10-31T09:00:28.547Z,8.50
2022-10-31T09:02:59.082Z,8.46
2022-10-31T09:05:26.359Z,8.74
2022-10-31T09:07:57.630Z,8.82
2022-10-31T09:10:25.114Z,8.86
2022-10-31T09:13:02.875Z,8.88
2022-10-31T09:15:30.013Z,9.01
2022-10-31T09:17:57.716Z,9.22
2022-10-31T09:20:24.680Z,9.28
2022-10-31T09:23:02.565Z,9.42
2022-10-31T09:25:29.952Z,9.82
2022-10-31T09:28:01.199Z,9.64
2022-10-31T09:30:32.075Z,9.76
2022-10-31T09:33:00.023Z,10.12
2022-10-31T09:35:27.134Z,10.41
2022-10-31T09:37:57.894Z,10.33
2022-10-31T09:40:32.612Z,10.20
2022-10-31T09:43:05.278Z,10.22
2022-10-31T09:45:34.325Z,10.57
2022-10-31T09:48:09.973Z,10.76
2022-10-31T09:50:39.304Z,11.00
2022-10-31T09:53:26.583Z,11.08
2022-10-31T09:55:53.762Z,11.92
2022-10-31T09:58:33.036Z,12.08
2022-10-31T10:01:04.055Z,12.16
2022-10-31T10:03:45.562Z,11.95
2022-10-31T10:06:18.642Z,13.08
2022-10-31T10:08:45.602Z,13.03
2022-10-31T10:11:19.332Z,13.16
2022-10-31T10:14:03.515Z,13.65
2022-10-31T10:16:49.440Z,13.90
2022-10-31T10:19:41.162Z,13.84
2022-10-31T10:22:23.783Z,13.93
2022-10-31T10:24:56.482Z,14.12
2022-10-31T10:27:41.922Z,13.27
2022-10-31T10:30:21.426Z,14.46
2022-10-31T10:32:59.225Z,15.17
2022-10-31T10:35:31.382Z,14.39
2022-10-31T10:38:10.100Z,14.48
2022-10-31T10:40:37.077Z,14.46
2022-10-31T10:43:24.202Z,14.55
2022-10-31T10:46:24.742Z,14.83
2022-10-31T10:49:06.331Z,15.30
2022-10-31T10:52:02.763Z,14.47
2022-10-31T10:54:39.372Z,15.36
2022-10-31T10:57:27.772Z,15.56
2022-10-31T10:59:54.519Z,15.22
2022-10-31T11:02:24.851Z,15.43
2022-10-31T11:04:56.532Z,16.14
2022-10-31T11:07:23.401Z,16.13
2022-10-31T11:09:50.301Z,16.19
2022-10-31T11:12:29.581Z,15.83
2022-10-31T11:15:02.756Z,16.33
2022-10-31T11:17:33.552Z,16.84
2022-10-31T11:20:02.441Z,16.79
2022-10-31T11:22:29.170Z,17.19
2022-10-31T11:24:55.800Z,16.68
2022-10-31T11:27:25.161Z,16.79
2022-10-31T11:29:55.706Z,17.57
2022-10-31T11:32:27.943Z,17.18
2022-10-31T11:34:57.531Z,17.41
2022-10-31T11:37:26.762Z,17.47
2022-10-31T11:39:59.491Z,17.08
2022-10-31T11:42:29.352Z,17.04
2022-10-31T11:44:56.742Z,17.40
2022-10-31T11:47:28.531Z,17.91
2022-10-31T11:49:56.133Z,17.75
2022-10-31T11:52:25.852Z,18.10
2022-10-31T11:55:14.860Z,18.41
2022-10-31T11:57:46.553Z,17.58
2022-10-31T12:00:34.677Z,17.34
2022-10-31T12:03:23.331Z,17.84
2022-10-31T12:05:56.232Z,18.13
2022-10-31T12:08:22.958Z,18.12
2022-10-31T12:11:19.912Z,18.36
2022-10-31T12:13:52.244Z,18.48
2022-10-31T12:16:24.966Z,18.62
2022-10-31T12:19:20.894Z,18.10
2022-10-31T12:22:14.011Z,18.77
2022-10-31T12:25:01.252Z,18.41
2022-10-31T12:27:30.621Z,18.79
2022-10-31T12:30:19.113Z,18.78
2022-10-31T12:33:19.632Z,18.96
2022-10-31T12:36:04.611Z,18.86
2022-10-31T12:38:43.986Z,18.85
2022-10-31T12:41:39.851Z,19.14
2022-10-31T12:44:10.115Z,18.87
2022-10-31T12:46:56.320Z,18.49
2022-10-31T12:49:55.297Z,18.13
2022-10-31T12:52:21.971Z,18.20
2022-10-31T12:55:22.533Z,18.21
2022-10-31T12:57:53.851Z,18.38
2022-10-31T13:00:22.576Z,18.56
2022-10-31T13:02:52.920Z,18.38
2022-10-31T13:05:25.331Z,18.41
2022-10-31T13:08:21.175Z,18.55
2022-10-31T13:10:51.520Z,18.48
2022-10-31T13:13:28.264Z,18.51
2022-10-31T13:16:02.455Z,18.82
2022-10-31T13:18:34.831Z,18.54
2022-10-31T13:21:05.353Z,18.59
2022-10-31T13:23:50.307Z,18.63
2022-10-31T13:26:39.932Z,18.90
2022-10-31T13:29:19.562Z,18.49
2022-10-31T13:31:46.342Z,18.57
2022-10-31T13:34:36.573Z,19.10
2022-10-31T13:37:15.705Z,19.20
2022-10-31T13:39:59.822Z,19.26
2022-10-31T13:42:40.525Z,19.36
2022-10-31T13:45:18.644Z,19.11
2022-10-31T13:48:07.832Z,19.09
2022-10-31T13:50:34.632Z,18.95
2022-10-31T13:53:19.431Z,18.83
2022-10-31T13:55:49.381Z,18.80
2022-10-31T13:58:27.566Z,19.16
2022-10-31T14:01:00.521Z,18.98
2022-10-31T14:03:57.418Z,19.03
2022-10-31T14:06:16.703Z,18.93
2022-10-31T14:08:50.612Z,18.90
2022-10-31T14:11:25.940Z,18.76
2022-10-31T14:13:52.772Z,18.57
2022-10-31T14:16:24.632Z,18.13
2022-10-31T14:19:07.742Z,17.97
2022-10-31T14:21:37.501Z,17.70
2022-10-31T14:24:15.495Z,17.28
2022-10-31T14:26:55.692Z,17.49
2022-10-31T14:29:34.062Z,17.05
2022-10-31T14:32:19.283Z,16.65
2022-10-31T14:34:53.663Z,16.61
2022-10-31T14:37:53.286Z,16.35
2022-10-31T14:40:28.682Z,15.90
2022-10-31T14:43:09.071Z,15.57
2022-10-31T14:45:58.982Z,15.46
2022-10-31T14:48:41.107Z,15.32
2022-10-31T14:51:15.290Z,15.33
2022-10-31T14:53:55.282Z,15.30
2022-10-31T14:56:27.011Z,15.13
2022-10-31T14:58:56.654Z,14.77
2022-10-31T15:01:29.851Z,14.83
2022-10-31T15:04:22.385Z,14.64
2022-10-31T15:07:04.190Z,14.41
2022-10-31T15:09:36.064Z,14.58
2022-10-31T15:12:28.881Z,14.39
2022-10-31T15:14:57.035Z,14.37
2022-10-31T15:17:25.065Z,14.49
2022-10-31T15:19:52.873Z,14.25
2022-10-31T15:22:24.214Z,14.11
2022-10-31T15:24:57.149Z,14.04
2022-10-31T15:27:24.791Z,13.84
2022-10-31T15:29:53.344Z,13.80
2022-10-31T15:32:25.762Z,13.74
2022-10-31T15:34:53.581Z,13.61
2022-10-31T15:37:22.382Z,13.49
2022-10-31T15:39:50.373Z,13.38
2022-10-31T15:42:25.965Z,13.30
2022-10-31T15:45:13.952Z,13.28
2022-10-31T15:47:46.926Z,13.10
2022-10-31T15:50:23.394Z,12.91
2022-10-31T15:52:51.312Z,12.94
2022-10-31T15:55:20.151Z,12.86
2022-10-31T15:57:52.072Z,12.81
2022-10-31T16:00:30.554Z,12.77
2022-10-31T16:03:15.137Z,12.74
2022-10-31T16:05:49.502Z,12.75
2022-10-31T16:08:31.510Z,12.75
2022-10-31T16:10:58.661Z,12.68
2022-10-31T16:13:28.771Z,12.30
2022-10-31T16:16:21.279Z,12.36
2022-10-31T16:18:45.724Z,12.42
2022-10-31T16:21:13.052Z,12.37
2022-10-31T16:23:44.824Z,12.28
2022-10-31T16:26:18.510Z,12.32
2022-10-31T16:28:59.103Z,12.31
2022-10-31T16:31:40.232Z,12.09
2022-10-31T16:34:15.352Z,12.10
2022-10-31T16:36:42.743Z,12.06
2022-10-31T16:39:09.462Z,11.93
2022-10-31T16:41:40.881Z,11.94
2022-10-31T16:44:20.391Z,12.06
2022-10-31T16:46:47.356Z,11.91
2022-10-31T16:49:14.273Z,11.64
2022-10-31T16:51:41.011Z,11.69
2022-10-31T16:54:07.812Z,11.50
2022-10-31T16:56:35.562Z,11.44
2022-10-31T16:59:04.883Z,11.49
2022-10-31T17:01:32.520Z,11.39
2022-10-31T17:03:59.412Z,11.40
2022-10-31T17:06:28.576Z,11.45
2022-10-31T17:08:55.683Z,11.47
2022-10-31T17:11:24.325Z,11.44
2022-10-31T17:13:51.279Z,11.51
2022-10-31T17:16:18.003Z,11.53
2022-10-31T17:18:46.194Z,11.31
2022-10-31T17:21:23.301Z,11.33
2022-10-31T17:23:51.173Z,11.23
2022-10-31T17:26:18.602Z,11.14
2022-10-31T17:28:45.351Z,11.26
2022-10-31T17:31:23.716Z,11.31
2022-10-31T17:33:50.791Z,11.26
2022-10-31T17:36:17.818Z,11.01
2022-10-31T17:38:44.493Z,11.13
2022-10-31T17:41:11.647Z,11.14
2022-10-31T17:43:38.651Z,11.12
2022-10-31T17:46:06.032Z,11.08
2022-10-31T17:48:34.543Z,11.14
2022-10-31T17:51:02.832Z,11.27
2022-10-31T17:53:30.713Z,11.15
2022-10-31T17:56:05.710Z,11.15
2022-10-31T17:58:32.852Z,11.11
2022-10-31T18:00:59.993Z,11.06
2022-10-31T18:03:27.393Z,11.00
2022-10-31T18:05:58.988Z,11.04
2022-10-31T18:08:30.822Z,10.98
2022-10-31T18:11:00.563Z,10.96
2022-10-31T18:13:30.193Z,10.81
2022-10-31T18:15:57.461Z,10.86
2022-10-31T18:18:24.142Z,10.83
2022-10-31T18:20:50.872Z,10.88
2022-10-31T18:23:17.571Z,10.93
2022-10-31T18:25:44.460Z,10.93
2022-10-31T18:28:11.263Z,10.70
2022-10-31T18:30:41.753Z,10.76
2022-10-31T18:33:09.352Z,10.71
2022-10-31T18:35:38.169Z,10.74
2022-10-31T18:38:06.375Z,10.75
2022-10-31T18:40:36.302Z,10.70
2022-10-31T18:43:03.532Z,10.69
2022-10-31T18:45:41.540Z,10.70
2022-10-31T18:48:14.506Z,10.75
2022-10-31T18:50:41.514Z,10.71
2022-10-31T18:53:08.724Z,10.69
2022-10-31T18:55:41.516Z,10.60
2022-10-31T18:58:10.864Z,10.58
2022-10-31T19:00:37.777Z,10.52
2022-10-31T19:03:05.483Z,10.48
2022-10-31T19:05:32.262Z,10.43
2022-10-31T19:07:59.041Z,10.39
2022-10-31T19:10:25.713Z,10.39
2022-10-31T19:12:52.431Z,10.45
2022-10-31T19:15:19.150Z,10.37
2022-10-31T19:17:46.591Z,10.38
2022-10-31T19:20:14.144Z,10.45
2022-10-31T19:22:40.881Z,10.39
2022-10-31T19:25:10.448Z,10.32
2022-10-31T19:27:38.269Z,10.32
2022-10-31T19:30:05.926Z,10.36
2022-10-31T19:32:32.738Z,10.42
2022-10-31T19:34:59.402Z,10.34
2022-10-31T19:37:26.113Z,10.26
2022-10-31T19:39:52.859Z,10.24
2022-10-31T19:42:19.533Z,10.27
2022-10-31T19:44:46.312Z,10.29
2022-10-31T19:47:12.952Z,10.32
2022-10-31T19:49:39.661Z,10.26
2022-10-31T19:52:06.395Z,10.09
2022-10-31T19:54:33.161Z,10.12
2022-10-31T19:56:59.873Z,9.98
2022-10-31T19:59:26.633Z,9.91
2022-10-31T20:01:53.487Z,9.97
2022-10-31T20:04:20.302Z,9.84
2022-10-31T20:06:47.183Z,9.91
2022-10-31T20:09:14.630Z,9.92
2022-10-31T20:11:42.967Z,9.98
2022-10-31T20:14:13.140Z,10.01
2022-10-31T20:16:40.154Z,10.01
2022-10-31T20:19:06.808Z,9.92
2022-10-31T20:21:38.633Z,9.83
2022-10-31T20:24:08.160Z,9.78
2022-10-31T20:26:35.632Z,9.75
2022-10-31T20:29:03.370Z,9.63
2022-10-31T20:31:33.041Z,9.69
2022-10-31T20:33:59.810Z,9.73
2022-10-31T20:36:28.834Z,9.78
2022-10-31T20:38:55.797Z,9.66
2022-10-31T20:41:22.488Z,9.68
2022-10-31T20:43:49.262Z,9.58
2022-10-31T20:46:16.843Z,9.62
2022-10-31T20:48:43.564Z,9.57
2022-10-31T20:53:43.225Z,9.63
2022-10-31T20:56:12.072Z,9.56
2022-10-31T20:58:40.086Z,9.57
2022-10-31T21:01:29.815Z,9.44
2022-10-31T21:03:58.489Z,9.37
2022-10-31T21:06:25.712Z,9.37
2022-10-31T21:08:53.945Z,9.31
2022-10-31T21:11:22.858Z,9.20
2022-10-31T21:13:49.900Z,9.02
2022-10-31T21:16:19.181Z,9.13
2022-10-31T21:18:46.957Z,8.97
2022-10-31T21:21:15.043Z,8.98
2022-10-31T21:23:43.191Z,8.97
2022-10-31T21:26:16.168Z,9.00
2022-10-31T21:28:43.071Z,8.95
2022-10-31T21:31:12.418Z,8.87
2022-10-31T21:33:39.527Z,8.81
2022-10-31T21:36:07.050Z,8.82
2022-10-31T21:38:34.369Z,8.84
2022-10-31T21:41:02.925Z,8.79
2022-10-31T21:43:29.840Z,8.71
2022-10-31T21:46:01.776Z,8.60
2022-10-31T21:48:29.091Z,8.44
2022-10-31T21:50:55.728Z,8.36
2022-10-31T21:53:40.975Z,8.40
2022-10-31T21:56:08.261Z,8.32
2022-10-31T21:58:37.770Z,8.36
2022-10-31T22:01:05.563Z,8.33
2022-10-31T22:03:36.594Z,8.16
2022-10-31T22:06:04.779Z,8.12
2022-10-31T22:08:31.544Z,8.15
2022-10-31T22:11:02.556Z,8.09
2022-10-31T22:13:32.847Z,8.07
2022-10-31T22:16:03.927Z,8.07
2022-10-31T22:18:30.550Z,8.07
2022-10-31T22:21:27.448Z,8.04
2022-10-31T22:24:01.753Z,8.06
2022-10-31T22:26:31.728Z,8.03
2022-10-31T22:29:02.142Z,8.07
2022-10-31T22:31:30.246Z,8.10
2022-10-31T22:33:57.382Z,8.13
2022-10-31T22:36:26.313Z,8.08
2022-10-31T22:38:53.019Z,8.07
2022-10-31T22:41:25.382Z,8.08
2022-10-31T22:43:52.560Z,8.04
2022-10-31T22:46:20.963Z,8.03
2022-10-31T22:48:50.415Z,8.00
2022-10-31T22:51:17.784Z,7.98
2022-10-31T22:53:44.883Z,7.95
2022-10-31T22:56:13.649Z,7.94
2022-10-31T22:58:40.621Z,7.94
2022-10-31T23:01:11.750Z,7.74
2022-10-31T23:03:38.680Z,7.74
2022-10-31T23:06:06.756Z,7.80
2022-10-31T23:08:35.661Z,7.79
2022-10-31T23:11:04.273Z,7.75
2022-10-31T23:13:50.553Z,7.67
2022-10-31T23:16:17.374Z,7.54
2022-10-31T23:18:50.004Z,7.60
2022-10-31T23:21:37.314Z,7.52
2022-10-31T23:24:04.167Z,7.44
2022-10-31T23:26:49.340Z,7.47
2022-10-31T23:29:15.952Z,7.50
2022-10-31T23:31:42.546Z,7.53
2022-10-31T23:34:09.300Z,7.50
2022-10-31T23:36:35.873Z,7.32
2022-10-31T23:39:02.598Z,7.34
2022-10-31T23:41:29.187Z,7.33
2022-10-31T23:43:55.890Z,7.24
2022-10-31T23:46:22.458Z,7.34
2022-10-31T23:48:49.572Z,7.31
2022-10-31T23:51:16.466Z,7.25
2022-10-31T23:53:46.371Z,7.27
2022-10-31T23:56:13.842Z,7.13
2022-10-31T23:58:40.683Z,7.15
